Time;durP1;ratioP1;P1;durP2;ratioP2;P2;SDS_P1;SDS_P2;PMS_P1;PMS_P2;Temp;Humidity;BMP_temperature;BMP_pressure;BME280_temperature;BME280_humidity;BME280_pressure;Samples;Min_cycle;Max_cycle;Signal;HPM_P1;HPM_P2
2022/10/02 00:01:47;;;;;;;9.85;1.60;;;12.20;99.90;;;;;;5039769;28;20272;-94
2022/10/02 00:04:22;;;;;;;12.85;3.05;;;12.20;99.90;;;;;;5040019;28;20041;-96
2022/10/02 00:06:49;;;;;;;13.25;1.77;;;12.20;99.90;;;;;;5038966;28;20030;-91
2022/10/02 00:09:30;;;;;;;11.85;1.50;;;12.10;99.90;;;;;;5039596;28;20029;-92
2022/10/02 00:11:59;;;;;;;17.55;2.40;;;12.10;99.90;;;;;;5039692;28;20075;-92
2022/10/02 00:14:32;;;;;;;10.60;1.70;;;12.10;99.90;;;;;;5040089;28;20025;-92
2022/10/02 00:17:00;;;;;;;15.05;1.92;;;12.10;99.90;;;;;;5040345;28;20029;-92
2022/10/02 00:19:26;;;;;;;9.00;1.67;;;12.10;99.90;;;;;;5040580;28;20022;-91
2022/10/02 00:22:11;;;;;;;17.50;2.72;;;12.10;99.90;;;;;;5036705;28;20110;-94
2022/10/02 00:24:55;;;;;;;13.80;2.45;;;12.10;99.90;;;;;;5037221;28;20022;-94
2022/10/02 00:27:30;;;;;;;16.70;1.85;;;12.10;99.90;;;;;;5036581;28;20018;-91
2022/10/02 00:29:59;;;;;;;12.07;1.98;;;12.10;99.90;;;;;;5038499;28;20038;-93
2022/10/02 00:33:02;;;;;;;11.77;2.47;;;12.10;99.90;;;;;;5040332;28;20017;-93
2022/10/02 00:36:01;;;;;;;12.10;1.80;;;12.10;99.90;;;;;;5040694;28;20038;-93
2022/10/02 00:38:41;;;;;;;14.25;3.20;;;12.10;99.90;;;;;;5019167;28;20026;-95
2022/10/02 00:41:29;;;;;;;7.93;1.20;;;12.10;99.90;;;;;;5040347;28;20010;-94
2022/10/02 00:44:06;;;;;;;6.53;1.30;;;12.00;99.90;;;;;;5039569;28;20763;-94
2022/10/02 00:46:36;;;;;;;13.45;1.58;;;12.00;99.90;;;;;;5039245;28;20026;-94
2022/10/02 00:49:43;;;;;;;10.98;1.60;;;12.00;99.90;;;;;;5040171;28;20026;-93
2022/10/02 00:52:53;;;;;;;9.68;3.25;;;12.00;99.90;;;;;;5039842;28;20034;-92
2022/10/02 00:55:37;;;;;;;14.13;1.70;;;12.00;99.90;;;;;;5039858;28;20346;-94
2022/10/02 00:58:23;;;;;;;17.67;2.13;;;12.00;99.90;;;;;;5040463;28;20037;-93
2022/10/02 01:01:26;;;;;;;12.05;2.78;;;11.90;99.90;;;;;;5032847;28;20038;-93
2022/10/02 01:03:53;;;;;;;23.10;2.38;;;11.90;99.90;;;;;;5039519;28;20048;-92
2022/10/02 01:06:24;;;;;;;12.45;1.80;;;11.90;99.90;;;;;;5039390;28;20040;-92
2022/10/02 01:08:51;;;;;;;10.40;2.00;;;11.90;99.90;;;;;;5038713;28;20044;-93
2022/10/02 01:11:19;;;;;;;11.95;1.90;;;11.90;99.90;;;;;;5035245;28;20048;-96
2022/10/02 01:13:46;;;;;;;15.43;2.10;;;11.90;99.90;;;;;;5037736;28;20014;-94
2022/10/02 01:16:13;;;;;;;10.05;1.63;;;11.90;99.90;;;;;;5035042;28;20064;-95
2022/10/02 01:18:39;;;;;;;18.15;2.53;;;11.90;99.90;;;;;;5038664;28;20038;-94
2022/10/02 01:21:13;;;;;;;9.18;1.85;;;11.90;99.90;;;;;;5039238;28;20056;-96
2022/10/02 01:23:52;;;;;;;14.00;2.15;;;11.90;99.90;;;;;;5038810;28;20050;-90
2022/10/02 01:26:18;;;;;;;14.38;2.05;;;11.90;99.90;;;;;;5040001;28;20020;-93
2022/10/02 01:28:45;;;;;;;7.95;1.48;;;11.90;99.90;;;;;;5040026;28;20057;-93
2022/10/02 01:31:14;;;;;;;14.65;2.30;;;11.90;99.90;;;;;;5039860;28;20036;-92
2022/10/02 01:33:43;;;;;;;12.93;2.20;;;11.90;99.90;;;;;;5039929;28;20030;-92
2022/10/02 01:36:10;;;;;;;20.50;2.35;;;11.90;99.90;;;;;;5039117;28;20053;-91
2022/10/02 01:38:39;;;;;;;14.27;1.95;;;11.90;99.90;;;;;;5039510;28;20034;-93
2022/10/02 01:41:08;;;;;;;13.57;1.77;;;11.90;99.90;;;;;;5038241;28;20045;-92
2022/10/02 01:43:39;;;;;;;24.25;2.38;;;11.90;99.90;;;;;;5028617;28;20014;-92
2022/10/02 01:46:19;;;;;;;18.73;1.95;;;11.80;99.90;;;;;;5019724;28;20022;-93
2022/10/02 01:48:50;;;;;;;;;;;11.90;99.90;;;;;;5019259;28;20029;-93
2022/10/02 01:51:32;;;;;;;11.50;1.60;;;11.80;99.90;;;;;;5019530;28;20097;-92
2022/10/02 01:54:25;;;;;;;21.05;2.67;;;11.80;99.90;;;;;;5019851;28;20019;-91
2022/10/02 01:57:13;;;;;;;12.45;1.85;;;11.70;99.90;;;;;;5019067;28;20022;-95
2022/10/02 02:00:16;;;;;;;13.32;2.00;;;11.70;99.90;;;;;;5019557;28;20029;-94
2022/10/02 02:02:50;;;;;;;9.90;1.88;;;11.70;99.90;;;;;;5020046;28;20019;-93
2022/10/02 02:05:56;;;;;;;11.15;2.17;;;11.70;99.90;;;;;;5018368;28;20083;-94
2022/10/02 02:08:33;;;;;;;17.17;1.85;;;11.70;99.90;;;;;;5019554;28;20026;-93
2022/10/02 02:11:18;;;;;;;10.82;2.13;;;11.70;99.90;;;;;;5009929;28;20058;-95
2022/10/02 02:13:46;;;;;;;19.40;2.67;;;11.70;99.90;;;;;;5007077;28;20037;-93
2022/10/02 02:16:30;;;;;;;16.58;2.17;;;11.70;99.90;;;;;;5007769;28;20038;-93
2022/10/02 02:19:24;;;;;;;13.00;1.70;;;11.70;99.90;;;;;;5007658;28;20011;-94
2022/10/02 02:21:59;;;;;;;13.50;2.38;;;11.70;99.90;;;;;;5018702;28;20042;-93
2022/10/02 02:24:27;;;;;;;18.58;2.38;;;11.70;99.90;;;;;;5030665;28;20030;-95
2022/10/02 02:26:57;;;;;;;15.45;2.35;;;11.70;99.90;;;;;;5014812;28;20041;-95
2022/10/02 02:29:25;;;;;;;18.67;2.88;;;11.60;99.90;;;;;;5029221;28;20046;-94
2022/10/02 02:31:54;;;;;;;17.02;3.08;;;11.60;99.90;;;;;;5023609;28;20034;-94
2022/10/02 02:34:56;;;;;;;15.48;2.33;;;11.60;99.90;;;;;;5024459;28;20399;-93
2022/10/02 02:37:22;;;;;;;;;;;11.60;99.90;;;;;;5010568;28;20171;-95
2022/10/02 02:40:03;;;;;;;18.35;4.05;;;11.50;99.90;;;;;;5019365;28;19912;-92
2022/10/02 02:42:32;;;;;;;15.45;2.22;;;11.50;99.90;;;;;;5021142;28;20049;-93
2022/10/02 02:45:01;;;;;;;16.33;2.45;;;11.50;99.90;;;;;;5023484;28;20125;-95
2022/10/02 02:47:36;;;;;;;16.85;3.45;;;11.50;99.90;;;;;;5025694;28;20025;-93
2022/10/02 02:50:20;;;;;;;16.02;2.30;;;11.50;99.90;;;;;;5018424;28;20038;-94
2022/10/02 02:53:04;;;;;;;11.52;2.13;;;11.40;99.90;;;;;;5031076;28;20026;-94
2022/10/02 02:55:53;;;;;;;14.20;1.80;;;11.40;99.90;;;;;;5020302;28;20121;-96
2022/10/02 02:58:26;;;;;;;20.63;2.10;;;11.40;99.90;;;;;;5018100;28;20106;-96
2022/10/02 03:00:51;;;;;;;16.30;1.90;;;11.40;99.90;;;;;;5020188;28;20045;-94
2022/10/02 03:03:17;;;;;;;17.65;2.10;;;11.40;99.90;;;;;;5003474;28;20030;-94
2022/10/02 03:05:50;;;;;;;16.42;2.28;;;11.40;99.90;;;;;;5017809;28;20384;-94
2022/10/02 03:08:26;;;;;;;16.42;2.60;;;11.40;99.90;;;;;;5019499;28;20026;-94
2022/10/02 03:11:04;;;;;;;13.68;2.72;;;11.40;99.90;;;;;;5020939;28;20029;-94
2022/10/02 03:14:06;;;;;;;7.72;1.58;;;11.40;99.90;;;;;;5016962;28;20049;-95
2022/10/02 03:16:59;;;;;;;7.97;1.85;;;11.40;99.90;;;;;;5011515;28;20038;-95
2022/10/02 03:19:36;;;;;;;15.32;2.22;;;11.40;99.90;;;;;;4977622;28;20042;-94
2022/10/02 03:22:11;;;;;;;10.35;2.40;;;11.40;99.90;;;;;;5016411;28;20057;-94
2022/10/02 03:25:01;;;;;;;19.33;3.00;;;11.40;99.90;;;;;;5020908;28;20037;-94
2022/10/02 03:27:46;;;;;;;14.90;2.97;;;11.40;99.90;;;;;;5015569;28;20026;-95
2022/10/02 03:30:14;;;;;;;18.88;3.15;;;11.50;99.90;;;;;;5017186;28;20060;-94
2022/10/02 03:32:45;;;;;;;17.70;2.78;;;11.50;99.90;;;;;;5017869;28;20105;-94
2022/10/02 03:35:12;;;;;;;9.18;2.03;;;11.50;99.90;;;;;;5015689;28;20482;-94
2022/10/02 03:37:45;;;;;;;10.27;2.90;;;11.50;99.90;;;;;;5017002;28;20042;-93
2022/10/02 03:40:11;;;;;;;10.70;1.77;;;11.50;99.90;;;;;;5018054;28;20030;-95
2022/10/02 03:42:38;;;;;;;11.63;2.22;;;11.50;99.90;;;;;;5017669;28;20022;-95
2022/10/02 03:45:05;;;;;;;15.55;2.50;;;11.50;99.90;;;;;;5017188;28;20117;-95
2022/10/02 03:47:31;;;;;;;18.17;3.40;;;11.50;99.90;;;;;;5015925;28;20034;-94
2022/10/02 03:49:57;;;;;;;21.17;3.15;;;11.50;99.90;;;;;;5019014;28;20373;-94
2022/10/02 03:52:23;;;;;;;16.13;2.60;;;11.50;99.90;;;;;;5033627;28;20053;-96
2022/10/02 03:54:54;;;;;;;13.52;2.35;;;11.50;99.90;;;;;;5023582;28;20030;-94
2022/10/02 03:57:23;;;;;;;26.15;4.18;;;11.50;99.90;;;;;;5018950;28;20511;-95
2022/10/02 04:00:04;;;;;;;13.05;2.35;;;11.50;99.90;;;;;;5016941;28;20171;-95
2022/10/02 04:03:10;;;;;;;11.13;2.38;;;11.50;99.90;;;;;;5018138;28;20025;-96
2022/10/02 04:06:01;;;;;;;12.88;2.67;;;11.50;99.90;;;;;;4965317;28;20034;-95
2022/10/02 04:08:37;;;;;;;9.18;2.42;;;11.50;99.90;;;;;;5013040;28;20026;-95
2022/10/02 04:11:15;;;;;;;15.82;2.55;;;11.40;99.90;;;;;;5013465;28;20052;-96
2022/10/02 04:13:51;;;;;;;13.60;2.60;;;11.40;99.90;;;;;;5014887;28;20018;-95
2022/10/02 04:16:32;;;;;;;15.52;3.35;;;11.40;99.90;;;;;;5017031;28;20026;-95
2022/10/02 04:19:18;;;;;;;8.25;2.60;;;11.40;99.90;;;;;;5015945;28;20040;-94
2022/10/02 04:21:54;;;;;;;16.88;4.85;;;11.40;99.90;;;;;;5015109;28;20057;-95
2022/10/02 04:24:28;;;;;;;21.48;4.03;;;11.40;99.90;;;;;;5019861;28;20026;-96
2022/10/02 04:27:33;;;;;;;14.68;2.50;;;11.30;99.90;;;;;;5021586;28;20105;-94
2022/10/02 04:30:09;;;;;;;20.02;3.70;;;11.30;99.90;;;;;;5019944;28;20026;-94
2022/10/02 04:32:36;;;;;;;17.30;3.95;;;11.30;99.90;;;;;;5019631;28;20488;-95
2022/10/02 04:35:34;;;;;;;15.10;4.38;;;11.30;99.90;;;;;;5015802;28;20077;-96
2022/10/02 04:38:22;;;;;;;20.20;3.58;;;11.30;99.90;;;;;;5015514;28;20046;-95
2022/10/02 04:41:23;;;;;;;28.92;5.07;;;11.30;99.90;;;;;;5022038;28;20025;-94
2022/10/02 04:44:01;;;;;;;21.65;5.75;;;11.30;99.90;;;;;;5031367;28;20054;-94
2022/10/02 04:46:27;;;;;;;16.38;4.00;;;11.30;99.90;;;;;;5029721;28;20025;-95
2022/10/02 04:49:14;;;;;;;15.40;3.95;;;11.30;99.90;;;;;;5024614;28;20034;-94
2022/10/02 04:51:59;;;;;;;16.42;3.78;;;11.30;99.90;;;;;;5031766;28;20080;-94
2022/10/02 04:54:47;;;;;;;14.30;3.55;;;11.30;99.90;;;;;;5024241;28;20037;-94
2022/10/02 04:57:12;;;;;;;16.33;4.45;;;11.30;99.90;;;;;;5019970;28;20439;-96
2022/10/02 05:00:00;;;;;;;12.75;2.90;;;11.30;99.90;;;;;;5022885;28;20042;-95
2022/10/02 05:02:31;;;;;;;11.07;3.22;;;11.30;99.90;;;;;;5027969;28;20042;-94
2022/10/02 05:05:09;;;;;;;20.08;4.50;;;11.30;99.90;;;;;;5029249;28;20113;-96
2022/10/02 05:07:54;;;;;;;13.65;3.42;;;11.30;99.90;;;;;;5024909;28;20030;-95
2022/10/02 05:10:40;;;;;;;8.57;3.40;;;11.30;99.90;;;;;;5023176;28;20034;-96
2022/10/02 05:13:15;;;;;;;16.48;2.97;;;11.30;99.90;;;;;;5024309;28;20049;-94
2022/10/02 05:16:05;;;;;;;18.98;4.53;;;11.20;99.90;;;;;;5023632;28;20031;-94
2022/10/02 05:18:43;;;;;;;21.75;3.58;;;11.20;99.90;;;;;;5027409;28;20124;-94
2022/10/02 05:21:37;;;;;;;17.67;3.08;;;11.20;99.90;;;;;;5026738;28;20092;-94
2022/10/02 05:24:19;;;;;;;14.05;3.50;;;11.20;99.90;;;;;;5033689;28;20036;-95
2022/10/02 05:26:47;;;;;;;18.00;3.33;;;11.10;99.90;;;;;;5024336;28;20038;-95
2022/10/02 05:29:19;;;;;;;16.08;4.15;;;11.20;99.90;;;;;;5029937;28;20030;-94
2022/10/02 05:32:14;;;;;;;25.35;5.65;;;11.10;99.90;;;;;;5034425;28;20030;-94
2022/10/02 05:34:56;;;;;;;16.65;3.58;;;11.10;99.90;;;;;;5031732;28;20022;-93
2022/10/02 05:37:28;;;;;;;13.95;3.35;;;11.10;99.90;;;;;;5036166;28;20042;-93
2022/10/02 05:39:57;;;;;;;17.08;3.55;;;11.10;99.90;;;;;;5024587;28;20029;-95
2022/10/02 05:42:39;;;;;;;19.70;3.72;;;11.10;99.90;;;;;;5024685;28;20478;-94
2022/10/02 05:45:33;;;;;;;16.05;3.30;;;11.10;99.90;;;;;;5024094;28;20040;-95
2022/10/02 05:48:09;;;;;;;20.70;3.30;;;11.10;99.90;;;;;;5029709;28;20491;-94
2022/10/02 05:50:36;;;;;;;22.30;4.30;;;11.10;99.90;;;;;;5034382;28;20030;-94
2022/10/02 05:53:44;;;;;;;24.85;4.40;;;11.00;99.90;;;;;;5034635;28;20041;-95
2022/10/02 05:56:14;;;;;;;25.27;4.03;;;11.00;99.90;;;;;;5032998;28;20034;-92
2022/10/02 05:58:46;;;;;;;20.98;5.07;;;11.00;99.90;;;;;;5032268;28;20049;-95
2022/10/02 06:01:18;;;;;;;30.52;4.93;;;11.00;99.90;;;;;;5029026;28;20407;-94
2022/10/02 06:04:21;;;;;;;23.15;5.13;;;11.00;99.90;;;;;;5031247;28;20053;-95
2022/10/02 06:06:50;;;;;;;20.83;4.05;;;10.90;99.90;;;;;;5033217;28;20010;-93
2022/10/02 06:09:24;;;;;;;35.78;5.07;;;10.90;99.90;;;;;;5034463;28;20030;-94
2022/10/02 06:12:00;;;;;;;19.55;5.00;;;10.90;99.90;;;;;;5026075;28;20018;-94
2022/10/02 06:14:38;;;;;;;25.38;4.68;;;10.90;99.90;;;;;;5018813;28;20018;-94
2022/10/02 06:17:29;;;;;;;18.70;4.70;;;10.90;99.90;;;;;;5019424;28;20050;-92
2022/10/02 06:20:31;;;;;;;17.92;4.45;;;10.90;99.90;;;;;;5020467;28;20443;-94
2022/10/02 06:23:08;;;;;;;27.80;4.50;;;10.90;99.90;;;;;;4998669;28;20038;-93
2022/10/02 06:25:50;;;;;;;26.13;5.03;;;10.80;99.90;;;;;;5037014;28;20045;-94
2022/10/02 06:28:22;;;;;;;23.27;4.57;;;10.80;99.90;;;;;;5019645;28;20072;-94
2022/10/02 06:31:20;;;;;;;13.25;3.40;;;10.80;99.90;;;;;;5019300;28;20030;-92
2022/10/02 06:33:46;;;;;;;24.42;4.05;;;10.80;99.90;;;;;;5019422;28;20046;-94
2022/10/02 06:36:15;;;;;;;28.13;5.07;;;10.70;99.90;;;;;;5020893;28;20029;-96
2022/10/02 06:39:18;;;;;;;24.02;4.90;;;10.70;99.90;;;;;;5020272;28;20018;-95
2022/10/02 06:42:07;;;;;;;19.48;3.75;;;10.70;99.90;;;;;;5019526;28;20022;-93
2022/10/02 06:45:09;;;;;;;25.00;4.63;;;10.70;99.90;;;;;;5020836;28;20022;-95
2022/10/02 06:48:00;;;;;;;19.23;3.88;;;10.70;99.90;;;;;;5019241;28;20065;-94
2022/10/02 06:50:40;;;;;;;;;;;10.70;99.90;;;;;;5020036;28;20034;-94
2022/10/02 06:54:05;;;;;;;23.13;4.57;;;10.70;99.90;;;;;;5020526;28;19917;-93
2022/10/02 06:56:47;;;;;;;21.70;3.90;;;10.70;99.90;;;;;;4920646;29;20107;-94
2022/10/02 06:59:19;;;;;;;16.73;3.83;;;10.70;99.90;;;;;;4922786;29;20032;-93
2022/10/02 07:01:49;;;;;;;26.98;5.20;;;10.80;99.90;;;;;;4924100;29;20036;-96
2022/10/02 07:04:41;;;;;;;24.02;5.22;;;10.80;99.90;;;;;;4924166;29;20012;-95
2022/10/02 07:07:27;;;;;;;13.50;3.00;;;10.80;99.90;;;;;;4939754;29;20036;-93
2022/10/02 07:10:28;;;;;;;24.58;3.33;;;10.90;99.90;;;;;;4922932;29;20016;-95
2022/10/02 07:12:57;;;;;;;22.15;3.38;;;10.90;99.90;;;;;;4937747;29;20080;-95
2022/10/02 07:15:40;;;;;;;23.80;3.20;;;10.90;99.90;;;;;;4922298;29;20036;-94
2022/10/02 07:18:20;;;;;;;21.17;3.58;;;11.00;99.90;;;;;;4923526;29;20044;-94
2022/10/02 07:21:06;;;;;;;24.20;3.13;;;11.00;99.90;;;;;;4924454;29;20044;-94
2022/10/02 07:24:04;;;;;;;18.70;3.15;;;11.10;99.90;;;;;;4921938;29;20020;-92
2022/10/02 07:27:06;;;;;;;21.88;4.47;;;11.10;99.90;;;;;;4923309;29;20027;-93
2022/10/02 07:29:40;;;;;;;23.23;3.30;;;11.20;99.90;;;;;;4922986;29;20036;-92
2022/10/02 07:32:12;;;;;;;28.35;4.68;;;11.20;99.90;;;;;;5006489;28;20026;-96
2022/10/02 07:35:29;;;;;;;18.65;2.83;;;11.30;99.90;;;;;;5020463;28;20037;-93
2022/10/02 07:38:19;;;;;;;18.42;3.00;;;11.30;99.90;;;;;;4920022;29;20148;-94
2022/10/02 07:41:02;;;;;;;25.27;3.28;;;11.30;99.90;;;;;;4922223;29;20052;-95
2022/10/02 07:43:30;;;;;;;21.05;2.90;;;11.30;99.90;;;;;;4923881;29;20016;-94
2022/10/02 07:46:17;;;;;;;18.33;3.05;;;11.40;99.90;;;;;;4923511;29;20055;-96
2022/10/02 07:48:57;;;;;;;21.77;3.28;;;11.30;99.90;;;;;;4939560;29;20040;-94
2022/10/02 07:51:59;;;;;;;26.13;3.08;;;11.40;99.90;;;;;;4922566;29;20036;-95
2022/10/02 07:54:39;;;;;;;25.58;3.03;;;11.40;99.90;;;;;;4922243;29;20024;-96
2022/10/02 07:57:44;;;;;;;22.35;3.40;;;11.50;99.90;;;;;;4919745;29;20024;-95
2022/10/02 08:00:24;;;;;;;22.27;3.05;;;11.60;99.90;;;;;;4922791;29;20043;-96
2022/10/02 08:03:13;;;;;;;21.52;2.65;;;11.60;99.90;;;;;;4936815;29;20036;-95
2022/10/02 08:05:45;;;;;;;22.45;2.72;;;11.70;99.90;;;;;;4917147;29;20040;-96
2022/10/02 08:09:01;;;;;;;22.60;3.63;;;11.80;99.90;;;;;;4921108;29;20044;-94
2022/10/02 08:11:42;;;;;;;17.27;2.65;;;11.80;99.90;;;;;;4923444;29;20055;-93
2022/10/02 08:14:39;;;;;;;19.65;2.53;;;11.90;99.90;;;;;;4997978;28;20037;-93
2022/10/02 08:17:26;;;;;;;21.35;3.17;;;11.90;99.90;;;;;;5017693;28;20126;-95
2022/10/02 08:19:54;;;;;;;29.58;3.95;;;11.90;99.90;;;;;;5014612;28;20053;-93
2022/10/02 08:22:35;;;;;;;22.20;3.47;;;12.00;99.90;;;;;;5014939;28;20093;-95
2022/10/02 08:25:23;;;;;;;23.55;2.92;;;12.00;99.90;;;;;;5012164;28;20025;-95
2022/10/02 08:28:10;;;;;;;21.65;2.88;;;12.10;99.90;;;;;;4992597;28;20084;-95
2022/10/02 08:30:37;;;;;;;23.33;2.58;;;12.20;99.90;;;;;;4989124;28;20081;-95
2022/10/02 08:33:57;;;;;;;20.63;3.60;;;12.30;99.90;;;;;;4994166;28;20039;-95
2022/10/02 08:36:43;;;;;;;15.82;2.40;;;12.40;99.90;;;;;;4976814;28;20038;-95
2022/10/02 08:39:34;;;;;;;26.58;2.72;;;12.60;99.90;;;;;;5013520;28;20022;-96
2022/10/02 08:42:40;;;;;;;12.40;2.25;;;12.70;99.90;;;;;;5017803;28;20105;-94
2022/10/02 08:45:14;;;;;;;31.17;3.03;;;12.80;99.90;;;;;;5010704;28;20045;-95
2022/10/02 08:47:58;;;;;;;15.52;2.97;;;12.80;99.90;;;;;;5027024;28;20041;-95
2022/10/02 08:50:48;;;;;;;18.27;2.88;;;12.80;99.90;;;;;;5022206;28;20026;-94
2022/10/02 08:54:02;;;;;;;22.52;4.68;;;12.80;99.90;;;;;;5009602;28;20038;-93
2022/10/02 08:56:52;;;;;;;21.20;3.30;;;12.80;99.90;;;;;;5001101;28;20041;-94
2022/10/02 08:59:32;;;;;;;20.50;3.60;;;12.80;99.90;;;;;;4993834;28;20027;-94
2022/10/02 09:02:29;;;;;;;23.75;3.63;;;12.80;99.90;;;;;;5010755;28;20014;-93
2022/10/02 09:05:09;;;;;;;13.95;3.00;;;12.80;99.90;;;;;;5002468;28;20034;-95
2022/10/02 09:07:38;;;;;;;15.40;2.30;;;12.90;99.90;;;;;;5010883;28;20018;-93
2022/10/02 09:10:27;;;;;;;25.17;2.83;;;13.00;99.90;;;;;;5009063;28;20293;-93
2022/10/02 09:13:32;;;;;;;29.40;3.20;;;13.00;99.90;;;;;;4975636;28;20053;-94
2022/10/02 09:16:23;;;;;;;15.88;2.50;;;13.10;99.90;;;;;;5005176;28;20034;-93
2022/10/02 09:19:33;;;;;;;22.80;3.15;;;13.20;99.90;;;;;;5007986;28;20557;-95
2022/10/02 09:22:23;;;;;;;24.70;2.78;;;13.40;99.90;;;;;;5011491;28;20187;-93
2022/10/02 09:25:21;;;;;;;17.23;3.13;;;13.50;99.90;;;;;;5031385;28;20460;-95
2022/10/02 09:27:56;;;;;;;21.05;2.90;;;13.70;99.90;;;;;;5018152;28;20052;-92
2022/10/02 09:30:32;;;;;;;23.58;2.78;;;13.90;99.90;;;;;;5019647;28;20050;-94
2022/10/02 09:33:26;;;;;;;19.05;2.90;;;14.20;99.90;;;;;;5023813;28;20034;-93
2022/10/02 09:36:29;;;;;;;17.85;2.40;;;14.30;99.90;;;;;;5021221;28;20022;-95
2022/10/02 09:39:10;;;;;;;18.52;2.25;;;14.40;99.90;;;;;;5022728;28;20026;-93
2022/10/02 09:41:55;;;;;;;;;;;14.50;99.90;;;;;;5021145;28;20044;-95
2022/10/02 09:44:43;;;;;;;24.52;3.80;;;14.70;99.90;;;;;;5017700;28;19940;-95
2022/10/02 09:47:17;;;;;;;14.13;3.30;;;14.90;99.90;;;;;;5012025;28;20026;-94
2022/10/02 09:49:56;;;;;;;17.90;3.25;;;14.90;99.90;;;;;;5006102;28;20095;-93
2022/10/02 09:52:53;;;;;;;22.52;3.50;;;15.00;99.90;;;;;;5011009;28;20108;-93
2022/10/02 09:55:41;;;;;;;13.57;4.20;;;15.10;99.90;;;;;;5012790;28;20061;-94
2022/10/02 09:58:32;;;;;;;20.30;4.40;;;15.20;99.90;;;;;;5012941;28;20042;-93
2022/10/02 10:01:09;;;;;;;16.83;2.72;;;15.30;99.90;;;;;;5021828;28;20098;-92
2022/10/02 10:03:54;;;;;;;15.27;2.72;;;15.30;99.90;;;;;;5017858;28;20121;-92
2022/10/02 10:06:50;;;;;;;14.20;2.25;;;15.40;99.90;;;;;;5020270;28;20033;-95
2022/10/02 10:09:41;;;;;;;11.45;2.17;;;15.60;99.90;;;;;;5019970;28;20034;-93
2022/10/02 10:12:20;;;;;;;15.35;2.03;;;15.60;99.90;;;;;;5023856;28;20108;-93
2022/10/02 10:15:21;;;;;;;19.25;2.13;;;15.70;99.90;;;;;;5023600;28;20018;-92
2022/10/02 10:18:06;;;;;;;;;;;15.70;99.90;;;;;;5028299;28;20030;-92
2022/10/02 10:20:50;;;;;;;15.15;2.80;;;15.70;99.90;;;;;;5027485;28;19915;-94
2022/10/02 10:23:35;;;;;;;20.40;2.45;;;15.60;99.90;;;;;;5031088;28;20017;-92
2022/10/02 10:26:26;;;;;;;12.38;2.00;;;15.70;99.90;;;;;;5034390;28;20033;-92
2022/10/02 10:29:03;;;;;;;15.05;2.20;;;15.80;99.90;;;;;;5028941;28;20029;-92
2022/10/02 10:32:10;;;;;;;11.38;2.15;;;15.80;99.90;;;;;;5030680;28;20093;-92
2022/10/02 10:35:21;;;;;;;17.20;2.30;;;15.90;99.90;;;;;;5022479;28;20021;-92
2022/10/02 10:40:55;;;;;;;15.30;2.10;;;15.70;99.40;;;;;;4977122;28;20488;-94
2022/10/02 10:43:40;;;;;;;12.10;1.65;;;15.60;99.70;;;;;;4959989;29;20031;-93
2022/10/02 10:46:27;;;;;;;13.73;2.70;;;15.50;99.40;;;;;;4958978;28;20027;-93
2022/10/02 10:49:20;;;;;;;16.20;2.60;;;15.40;99.70;;;;;;4956336;29;20070;-95
2022/10/02 10:52:12;;;;;;;20.40;2.47;;;15.30;99.90;;;;;;4955595;29;20046;-95
2022/10/02 10:55:05;;;;;;;12.65;2.17;;;15.30;99.90;;;;;;4961007;28;20027;-93
2022/10/02 10:57:44;;;;;;;17.05;2.30;;;15.20;99.90;;;;;;4962994;29;20046;-91
2022/10/02 11:00:21;;;;;;;17.20;2.22;;;15.10;99.90;;;;;;4962173;29;20059;-92
2022/10/02 11:02:56;;;;;;;17.25;2.25;;;15.20;99.90;;;;;;4959180;29;20031;-93
2022/10/02 11:05:45;;;;;;;26.05;2.75;;;15.50;99.90;;;;;;4958443;29;20023;-94
2022/10/02 11:08:30;;;;;;;13.20;3.45;;;15.90;99.90;;;;;;4960085;29;20020;-93
2022/10/02 11:11:26;;;;;;;16.88;2.40;;;16.20;99.90;;;;;;4978552;28;20030;-94
2022/10/02 11:14:11;;;;;;;17.30;2.72;;;16.40;99.00;;;;;;5036550;28;20039;-93
2022/10/02 11:17:03;;;;;;;13.98;1.98;;;16.40;98.20;;;;;;5036871;28;20009;-93
2022/10/02 11:19:44;;;;;;;16.90;2.42;;;16.40;97.40;;;;;;5039267;28;20039;-92
2022/10/02 11:22:25;;;;;;;10.75;1.70;;;16.20;96.90;;;;;;5038483;28;20081;-92
2022/10/02 11:25:20;;;;;;;16.58;2.50;;;16.10;97.50;;;;;;5040135;28;20021;-94
2022/10/02 11:28:20;;;;;;;16.48;2.90;;;15.90;97.30;;;;;;5019394;28;20053;-93
2022/10/02 11:31:11;;;;;;;19.40;2.42;;;15.80;97.40;;;;;;5038819;28;20031;-95
2022/10/02 11:33:59;;;;;;;;;;;15.70;97.70;;;;;;5038819;28;20040;-94
2022/10/02 11:36:43;;;;;;;13.18;1.85;;;15.60;98.00;;;;;;5038966;28;19940;-94
2022/10/02 11:39:55;;;;;;;13.60;1.95;;;15.60;98.30;;;;;;5039130;28;20037;-91
2022/10/02 11:42:26;;;;;;;11.38;2.25;;;15.50;98.10;;;;;;4959484;29;20054;-95
2022/10/02 11:45:16;;;;;;;15.60;2.88;;;15.60;98.10;;;;;;4977151;28;20031;-95
2022/10/02 11:47:45;;;;;;;15.10;2.80;;;15.60;98.00;;;;;;4978190;28;20032;-93
2022/10/02 11:50:28;;;;;;;13.55;2.42;;;15.60;98.20;;;;;;4977021;28;20031;-94
2022/10/02 11:53:02;;;;;;;14.00;2.28;;;15.70;98.50;;;;;;4977720;28;20071;-92
2022/10/02 11:55:48;;;;;;;5.95;1.30;;;15.80;98.50;;;;;;4978156;28;20027;-95
2022/10/02 11:58:44;;;;;;;7.50;1.38;;;16.20;97.70;;;;;;4978005;28;20121;-93
2022/10/02 12:01:34;;;;;;;11.02;1.77;;;16.60;96.30;;;;;;4978490;28;20105;-94
2022/10/02 12:04:24;;;;;;;9.50;2.53;;;16.80;94.10;;;;;;4978019;28;20020;-92
2022/10/02 12:07:05;;;;;;;13.20;1.58;;;17.00;93.00;;;;;;4978140;28;20046;-92
2022/10/02 12:09:53;;;;;;;;;;;17.10;91.90;;;;;;4978223;28;20019;-93
2022/10/02 12:12:40;;;;;;;10.63;2.00;;;17.00;90.70;;;;;;4921007;29;19950;-93
2022/10/02 12:15:21;;;;;;;15.18;2.30;;;17.20;90.60;;;;;;4904953;29;20027;-93
2022/10/02 12:18:38;;;;;;;6.00;1.55;;;17.20;89.00;;;;;;4904933;29;20043;-93
2022/10/02 12:28:11;;;;;;;9.40;1.38;;;18.00;83.40;;;;;;4906332;29;20025;-92
2022/10/02 12:30:49;;;;;;;6.18;1.27;;;18.00;82.10;;;;;;4890396;29;20053;-95
2022/10/02 12:33:27;;;;;;;10.30;1.60;;;17.90;80.90;;;;;;4889941;29;20041;-92
2022/10/02 12:36:23;;;;;;;7.80;1.50;;;18.20;81.10;;;;;;4906045;29;20043;-94
2022/10/02 12:39:08;;;;;;;9.02;1.35;;;18.40;80.00;;;;;;4890240;29;20053;-92
2022/10/02 12:42:00;;;;;;;10.35;2.03;;;18.50;79.00;;;;;;4890235;29;20064;-94
2022/10/02 12:44:47;;;;;;;11.50;1.40;;;18.30;78.50;;;;;;4890029;29;20069;-94
2022/10/02 12:47:39;;;;;;;11.65;1.65;;;18.10;79.00;;;;;;4905650;29;20028;-91
2022/10/02 12:50:35;;;;;;;11.23;2.13;;;17.90;79.70;;;;;;4922588;29;20044;-94
2022/10/02 12:53:30;;;;;;;13.73;1.73;;;17.50;80.60;;;;;;4927450;29;20016;-93
2022/10/02 12:56:15;;;;;;;7.88;1.67;;;17.10;81.70;;;;;;4957871;28;20093;-94
2022/10/02 12:58:59;;;;;;;12.13;1.80;;;16.80;82.20;;;;;;5042906;28;20064;-94
2022/10/02 13:02:06;;;;;;;16.38;2.28;;;16.70;83.10;;;;;;5043165;28;20014;-94
2022/10/02 13:05:11;;;;;;;9.60;1.98;;;16.60;84.10;;;;;;5042901;28;20026;-94
2022/10/02 13:08:03;;;;;;;15.18;2.70;;;16.60;84.70;;;;;;4945179;28;20039;-93
2022/10/02 13:10:41;;;;;;;16.38;2.90;;;16.70;85.30;;;;;;4944759;28;20030;-94
2022/10/02 13:13:27;;;;;;;11.85;1.90;;;17.10;85.40;;;;;;4961566;28;20027;-92
2022/10/02 13:16:21;;;;;;;9.75;1.95;;;17.30;85.20;;;;;;5068109;23;20064;-94
2022/10/02 13:19:29;;;;;;;9.77;2.08;;;17.40;84.50;;;;;;5038960;28;20049;-94
2022/10/02 13:22:08;;;;;;;6.32;1.35;;;17.50;84.10;;;;;;5040052;28;20010;-94
2022/10/02 13:25:01;;;;;;;7.32;1.45;;;17.30;83.00;;;;;;5038758;28;20033;-96
2022/10/02 13:27:48;;;;;;;9.63;2.05;;;17.20;82.10;;;;;;5038411;28;20030;-96
2022/10/02 13:30:19;;;;;;;12.15;1.50;;;17.00;81.70;;;;;;5037770;28;20034;-94
2022/10/02 13:33:04;;;;;;;;;;;16.90;82.00;;;;;;5039019;28;20044;-95
2022/10/02 13:35:37;;;;;;;9.65;1.35;;;16.80;82.10;;;;;;5033398;28;19913;-93
2022/10/02 13:38:18;;;;;;;9.20;2.08;;;16.80;82.40;;;;;;5026700;28;20113;-95
2022/10/02 13:41:02;;;;;;;;;;;16.70;82.70;;;;;;5030354;28;20018;-94
2022/10/02 13:43:54;;;;;;;7.68;1.40;;;16.70;83.00;;;;;;5029348;28;19966;-95
2022/10/02 13:46:44;;;;;;;12.15;1.88;;;16.60;83.30;;;;;;4993942;28;20014;-94
2022/10/02 13:49:38;;;;;;;13.88;2.40;;;16.50;84.00;;;;;;5040554;28;20014;-92
2022/10/02 13:52:21;;;;;;;10.57;1.65;;;16.50;84.50;;;;;;5024742;28;20037;-93
2022/10/02 13:55:11;;;;;;;6.93;1.10;;;16.40;84.80;;;;;;5014303;28;20061;-93
2022/10/02 13:57:47;;;;;;;7.80;1.63;;;16.40;85.50;;;;;;5022546;28;20035;-93
2022/10/02 14:00:39;;;;;;;10.70;1.33;;;16.40;85.60;;;;;;5014071;28;20293;-93
2022/10/02 14:03:30;;;;;;;4.90;1.30;;;16.40;85.10;;;;;;5028808;28;20095;-93
2022/10/02 14:06:11;;;;;;;7.13;1.42;;;16.50;85.20;;;;;;5023040;28;20094;-94
2022/10/02 14:09:05;;;;;;;6.13;1.40;;;16.70;85.10;;;;;;5003518;28;20139;-92
2022/10/02 14:12:05;;;;;;;6.88;1.30;;;17.20;84.80;;;;;;5023578;28;20022;-94
2022/10/02 14:14:55;;;;;;;6.18;1.10;;;17.90;80.90;;;;;;4985813;28;20061;-95